Time;durP1;ratioP1;P1;durP2;ratioP2;P2;SDS_P1;SDS_P2;PMS_P1;PMS_P2;Temp;Humidity;BMP_temperature;BMP_pressure;BME280_temperature;BME280_humidity;BME280_pressure;Samples;Min_cycle;Max_cycle;Signal;HPM_P1;HPM_P2
2021/03/22 00:01:14;;;;;;;0.00;0.00;;;;;;;;;;5041577;28;20710;-58
2021/03/22 00:03:41;;;;;;;0.27;0.20;;;;;;;;;;5046484;28;20595;-58
2021/03/22 00:06:08;;;;;;;0.00;0.00;;;;;;;;;;5053890;28;20195;-58
2021/03/22 00:08:35;;;;;;;0.10;0.10;;;;;;;;;;5043801;28;20188;-59
2021/03/22 00:11:02;;;;;;;0.90;0.83;;;;;;;;;;5049899;28;20673;-58
2021/03/22 00:13:29;;;;;;;0.27;0.13;;;;;;;;;;5042967;28;20245;-58
2021/03/22 00:15:57;;;;;;;0.00;0.00;;;;;;;;;;5041683;28;20235;-58
2021/03/22 00:18:27;;;;;;;2.57;0.37;;;;;;;;;;5042012;28;20924;-59
2021/03/22 00:20:54;;;;;;;1.60;1.50;;;;;;;;;;5049581;28;20234;-58
2021/03/22 00:23:21;;;;;;;0.20;0.20;;;;;;;;;;5053177;28;20187;-58
2021/03/22 00:25:48;;;;;;;1.60;0.53;;;;;;;;;;5028582;28;20999;-58
2021/03/22 00:28:18;;;;;;;0.00;0.00;;;;;;;;;;5055496;28;20884;-58
2021/03/22 00:30:46;;;;;;;0.00;0.00;;;;;;;;;;5030518;28;20734;-58
2021/03/22 00:33:13;;;;;;;0.20;0.20;;;;;;;;;;5042458;28;20190;-58
2021/03/22 00:35:40;;;;;;;0.27;0.27;;;;;;;;;;5045480;28;20215;-58
2021/03/22 00:38:08;;;;;;;0.10;0.10;;;;;;;;;;5044896;28;20184;-58
2021/03/22 00:40:36;;;;;;;0.00;0.00;;;;;;;;;;5047495;28;20935;-58
2021/03/22 00:43:03;;;;;;;0.00;0.00;;;;;;;;;;5044994;28;20182;-59
2021/03/22 00:45:30;;;;;;;0.00;0.00;;;;;;;;;;5042162;28;20183;-58
2021/03/22 00:47:57;;;;;;;0.00;0.00;;;;;;;;;;5044294;28;20206;-58
2021/03/22 00:50:26;;;;;;;0.00;0.00;;;;;;;;;;5041007;28;20187;-57
2021/03/22 00:52:53;;;;;;;0.00;0.00;;;;;;;;;;5042746;28;20684;-58
2021/03/22 00:55:21;;;;;;;0.00;0.00;;;;;;;;;;5042914;28;20203;-58
2021/03/22 00:57:49;;;;;;;0.00;0.00;;;;;;;;;;5046414;28;20190;-58
2021/03/22 01:00:36;;;;;;;0.10;0.10;;;;;;;;;;5040524;28;20646;-58
2021/03/22 01:03:07;;;;;;;0.23;0.23;;;;;;;;;;5045317;28;20196;-58
2021/03/22 01:05:37;;;;;;;0.00;0.00;;;;;;;;;;5045737;28;20191;-58
2021/03/22 01:08:06;;;;;;;0.00;0.00;;;;;;;;;;5039509;28;20195;-58
2021/03/22 01:10:40;;;;;;;0.00;0.00;;;;;;;;;;5051023;28;20956;-58
2021/03/22 01:13:17;;;;;;;0.10;0.10;;;;;;;;;;5044900;28;20935;-58
2021/03/22 01:15:46;;;;;;;0.00;0.00;;;;;;;;;;5047372;28;20326;-58
2021/03/22 01:18:13;;;;;;;0.37;0.37;;;;;;;;;;5046862;28;20180;-59
2021/03/22 01:20:42;;;;;;;0.00;0.00;;;;;;;;;;5050143;28;20305;-58
2021/03/22 01:23:09;;;;;;;0.00;0.00;;;;;;;;;;5049962;28;20186;-59
2021/03/22 01:25:35;;;;;;;0.10;0.10;;;;;;;;;;5050472;28;20215;-58
2021/03/22 01:28:02;;;;;;;0.00;0.00;;;;;;;;;;5051657;28;20720;-59
2021/03/22 01:30:37;;;;;;;0.00;0.00;;;;;;;;;;5043963;28;20191;-58
2021/03/22 01:33:07;;;;;;;0.10;0.10;;;;;;;;;;5041689;28;20929;-58
2021/03/22 01:35:34;;;;;;;0.00;0.00;;;;;;;;;;5054456;28;20218;-57
2021/03/22 01:38:00;;;;;;;0.10;0.10;;;;;;;;;;5045096;28;20191;-58
2021/03/22 01:40:27;;;;;;;0.30;0.30;;;;;;;;;;5054008;28;20234;-58
2021/03/22 01:43:01;;;;;;;0.57;0.57;;;;;;;;;;5050052;28;20200;-57
2021/03/22 01:45:28;;;;;;;0.10;0.10;;;;;;;;;;5049430;28;20892;-59
2021/03/22 01:47:54;;;;;;;0.20;0.20;;;;;;;;;;5045671;28;20633;-59
2021/03/22 01:50:26;;;;;;;0.20;0.20;;;;;;;;;;5044489;28;20582;-59
2021/03/22 01:52:54;;;;;;;0.60;0.60;;;;;;;;;;5055621;28;20297;-58
2021/03/22 01:55:22;;;;;;;0.10;0.10;;;;;;;;;;5046858;28;20243;-59
2021/03/22 01:57:48;;;;;;;0.10;0.10;;;;;;;;;;5056372;28;20187;-58
2021/03/22 02:00:28;;;;;;;0.10;0.10;;;;;;;;;;5047457;28;20191;-58
2021/03/22 02:03:16;;;;;;;0.20;0.20;;;;;;;;;;5043941;28;20183;-59
2021/03/22 02:05:44;;;;;;;0.10;0.10;;;;;;;;;;5047117;28;20306;-58
2021/03/22 02:08:21;;;;;;;0.20;0.20;;;;;;;;;;5050409;28;20656;-58
2021/03/22 02:10:47;;;;;;;0.10;0.10;;;;;;;;;;5053088;28;20951;-58
2021/03/22 02:13:15;;;;;;;0.00;0.00;;;;;;;;;;5054706;28;20182;-58
2021/03/22 02:15:43;;;;;;;4.60;1.40;;;;;;;;;;5055571;28;20323;-58
2021/03/22 02:18:13;;;;;;;0.60;0.60;;;;;;;;;;5047632;28;20191;-58
2021/03/22 02:21:01;;;;;;;0.20;0.20;;;;;;;;;;5047535;28;20219;-58
2021/03/22 02:23:48;;;;;;;0.10;0.10;;;;;;;;;;5051146;28;20204;-58
2021/03/22 02:26:17;;;;;;;0.20;0.20;;;;;;;;;;5060651;28;20209;-58
2021/03/22 02:28:44;;;;;;;0.10;0.10;;;;;;;;;;5050353;28;20210;-57
2021/03/22 02:31:17;;;;;;;0.33;0.33;;;;;;;;;;5052233;28;20549;-57
2021/03/22 02:33:50;;;;;;;0.20;0.20;;;;;;;;;;5048757;28;20731;-57
2021/03/22 02:36:29;;;;;;;0.63;0.40;;;;;;;;;;5050532;28;21222;-57
2021/03/22 02:38:57;;;;;;;0.10;0.10;;;;;;;;;;5058230;28;20188;-57
2021/03/22 02:41:33;;;;;;;0.10;0.10;;;;;;;;;;5063231;28;20186;-57
2021/03/22 02:44:02;;;;;;;0.20;0.20;;;;;;;;;;5048130;28;20635;-58
2021/03/22 02:46:30;;;;;;;0.10;0.10;;;;;;;;;;5048333;28;20206;-58
2021/03/22 02:48:59;;;;;;;0.10;0.10;;;;;;;;;;5050134;28;20187;-57
2021/03/22 02:51:33;;;;;;;0.30;0.30;;;;;;;;;;5047431;28;20852;-58
2021/03/22 02:54:22;;;;;;;0.33;0.33;;;;;;;;;;5050016;28;20881;-58
2021/03/22 02:56:55;;;;;;;0.10;0.10;;;;;;;;;;5045259;28;20238;-58
2021/03/22 02:59:37;;;;;;;2.00;0.47;;;;;;;;;;5046976;28;20179;-58
2021/03/22 03:02:05;;;;;;;0.10;0.10;;;;;;;;;;5047396;28;20230;-57
2021/03/22 03:04:36;;;;;;;0.10;0.10;;;;;;;;;;5048736;28;20243;-58
2021/03/22 03:07:04;;;;;;;0.10;0.10;;;;;;;;;;5045773;28;20202;-58
2021/03/22 03:09:34;;;;;;;0.10;0.10;;;;;;;;;;5058428;28;20190;-57
2021/03/22 03:12:11;;;;;;;0.73;0.40;;;;;;;;;;5047089;28;20198;-58
2021/03/22 03:14:38;;;;;;;0.10;0.10;;;;;;;;;;5054690;28;20422;-59
2021/03/22 03:17:05;;;;;;;0.10;0.10;;;;;;;;;;5051129;28;20218;-58
2021/03/22 03:19:32;;;;;;;0.10;0.10;;;;;;;;;;5045556;28;20190;-58
2021/03/22 03:21:58;;;;;;;0.10;0.10;;;;;;;;;;5050490;28;20894;-58
2021/03/22 03:24:25;;;;;;;0.10;0.10;;;;;;;;;;5049267;28;20405;-58
2021/03/22 03:26:52;;;;;;;0.10;0.10;;;;;;;;;;5052497;28;20218;-59
2021/03/22 03:29:18;;;;;;;0.10;0.10;;;;;;;;;;5051309;28;20226;-57
2021/03/22 03:31:45;;;;;;;0.10;0.10;;;;;;;;;;5042711;28;20209;-58
2021/03/22 03:34:11;;;;;;;0.10;0.10;;;;;;;;;;5051173;28;20898;-58
2021/03/22 03:36:38;;;;;;;0.10;0.10;;;;;;;;;;5046380;28;20199;-58
2021/03/22 03:39:05;;;;;;;0.10;0.10;;;;;;;;;;5055786;28;20183;-58
2021/03/22 03:41:32;;;;;;;0.30;0.30;;;;;;;;;;5055345;28;20551;-58
2021/03/22 03:43:59;;;;;;;0.10;0.10;;;;;;;;;;5049355;28;20199;-59
2021/03/22 03:46:25;;;;;;;0.10;0.10;;;;;;;;;;5060897;28;20230;-58
2021/03/22 03:48:52;;;;;;;0.27;0.27;;;;;;;;;;5049497;28;20279;-58
2021/03/22 03:51:18;;;;;;;0.10;0.10;;;;;;;;;;5056016;28;20294;-58
2021/03/22 03:53:45;;;;;;;0.10;0.10;;;;;;;;;;5057849;28;20191;-57
2021/03/22 03:56:12;;;;;;;0.20;0.20;;;;;;;;;;5051815;28;20268;-57
2021/03/22 03:58:38;;;;;;;0.10;0.10;;;;;;;;;;5051962;28;20556;-59
2021/03/22 04:01:05;;;;;;;0.10;0.10;;;;;;;;;;5049452;28;20292;-58
2021/03/22 04:03:36;;;;;;;0.20;0.20;;;;;;;;;;5051898;28;20218;-57
2021/03/22 04:06:07;;;;;;;0.10;0.10;;;;;;;;;;5053228;28;20201;-58
2021/03/22 04:08:35;;;;;;;0.10;0.10;;;;;;;;;;5046001;28;20216;-58
2021/03/22 04:11:03;;;;;;;0.10;0.10;;;;;;;;;;5054329;28;20183;-58
2021/03/22 04:13:30;;;;;;;0.20;0.20;;;;;;;;;;5052967;28;20182;-58
2021/03/22 04:15:56;;;;;;;0.20;0.20;;;;;;;;;;5054638;28;20928;-57
2021/03/22 04:18:23;;;;;;;1.53;0.57;;;;;;;;;;5048588;28;20178;-58
2021/03/22 04:20:50;;;;;;;0.10;0.10;;;;;;;;;;5053142;28;20633;-58
2021/03/22 04:23:16;;;;;;;0.40;0.40;;;;;;;;;;5054820;28;20740;-58
2021/03/22 04:25:43;;;;;;;0.30;0.30;;;;;;;;;;5055956;28;20190;-57
2021/03/22 04:28:10;;;;;;;0.57;0.57;;;;;;;;;;5051609;28;20194;-58
2021/03/22 04:30:36;;;;;;;0.20;0.20;;;;;;;;;;5046714;28;20198;-58
2021/03/22 04:33:03;;;;;;;0.03;0.03;;;;;;;;;;5046364;28;20186;-58
2021/03/22 04:35:30;;;;;;;0.10;0.10;;;;;;;;;;5054937;28;20209;-58
2021/03/22 04:37:57;;;;;;;0.10;0.10;;;;;;;;;;5049380;28;20190;-58
2021/03/22 04:40:24;;;;;;;0.10;0.10;;;;;;;;;;5054804;28;20182;-57
2021/03/22 04:42:51;;;;;;;0.10;0.10;;;;;;;;;;5049887;28;20213;-58
2021/03/22 04:45:19;;;;;;;0.10;0.10;;;;;;;;;;5044576;28;20186;-57
2021/03/22 04:47:47;;;;;;;0.10;0.10;;;;;;;;;;5053546;28;20854;-57
2021/03/22 04:50:14;;;;;;;0.10;0.10;;;;;;;;;;5047233;28;20193;-58
2021/03/22 04:52:40;;;;;;;0.10;0.10;;;;;;;;;;5044242;28;20888;-58
2021/03/22 04:55:08;;;;;;;0.10;0.10;;;;;;;;;;5049611;28;20214;-59
2021/03/22 04:57:35;;;;;;;0.30;0.30;;;;;;;;;;5048802;28;20199;-58
2021/03/22 05:00:02;;;;;;;0.10;0.10;;;;;;;;;;5049510;28;20244;-58
2021/03/22 05:02:28;;;;;;;0.10;0.10;;;;;;;;;;5045903;28;20186;-58
2021/03/22 05:04:55;;;;;;;0.10;0.10;;;;;;;;;;5054015;28;20281;-58
2021/03/22 05:07:21;;;;;;;0.10;0.10;;;;;;;;;;5040108;28;20192;-58
2021/03/22 05:09:48;;;;;;;0.10;0.10;;;;;;;;;;5045718;28;20190;-58
2021/03/22 05:12:15;;;;;;;0.10;0.10;;;;;;;;;;5063977;28;20277;-57
2021/03/22 05:14:41;;;;;;;0.10;0.10;;;;;;;;;;5051056;28;20975;-56
2021/03/22 05:17:08;;;;;;;0.10;0.10;;;;;;;;;;5047331;28;20218;-57
2021/03/22 05:19:35;;;;;;;0.10;0.10;;;;;;;;;;5049431;28;20767;-58
2021/03/22 05:22:02;;;;;;;0.87;0.87;;;;;;;;;;5043928;28;20182;-57
2021/03/22 05:24:29;;;;;;;0.10;0.10;;;;;;;;;;5049107;28;20187;-57
2021/03/22 05:26:56;;;;;;;0.20;0.20;;;;;;;;;;5056356;28;20281;-57
2021/03/22 05:29:24;;;;;;;0.20;0.20;;;;;;;;;;5047384;28;20195;-58
2021/03/22 05:31:51;;;;;;;0.40;0.40;;;;;;;;;;5055777;28;20232;-57
2021/03/22 05:34:18;;;;;;;0.40;0.40;;;;;;;;;;5050024;28;20225;-57
2021/03/22 05:36:45;;;;;;;0.33;0.33;;;;;;;;;;5045137;28;20942;-57
2021/03/22 05:39:12;;;;;;;0.10;0.10;;;;;;;;;;5050740;28;20225;-57
2021/03/22 05:41:49;;;;;;;0.57;0.50;;;;;;;;;;5068062;28;20271;-56
2021/03/22 05:44:36;;;;;;;4.40;0.83;;;;;;;;;;5051756;28;20691;-57
2021/03/22 05:47:13;;;;;;;0.57;0.47;;;;;;;;;;5056280;28;20189;-57
2021/03/22 05:49:43;;;;;;;0.47;0.40;;;;;;;;;;5044491;28;20198;-57
2021/03/22 05:52:17;;;;;;;1.70;1.60;;;;;;;;;;5049623;28;20269;-57
2021/03/22 05:54:53;;;;;;;0.17;0.17;;;;;;;;;;5042972;28;20213;-58
2021/03/22 05:57:43;;;;;;;1.17;0.77;;;;;;;;;;5051582;28;20213;-57
2021/03/22 06:00:15;;;;;;;0.83;0.43;;;;;;;;;;5052577;28;20178;-57
2021/03/22 06:02:50;;;;;;;0.10;0.10;;;;;;;;;;5053558;28;20280;-57
2021/03/22 06:05:32;;;;;;;0.10;0.10;;;;;;;;;;5052535;28;20182;-58
2021/03/22 06:08:02;;;;;;;0.10;0.10;;;;;;;;;;5055067;28;20182;-57
2021/03/22 06:10:39;;;;;;;1.30;0.63;;;;;;;;;;5050702;28;20198;-57
2021/03/22 06:13:06;;;;;;;4.00;2.20;;;;;;;;;;5057666;28;20298;-57
2021/03/22 06:15:36;;;;;;;0.00;0.00;;;;;;;;;;5052074;28;20242;-57
2021/03/22 06:18:17;;;;;;;0.20;0.20;;;;;;;;;;5052156;28;20237;-58
2021/03/22 06:20:44;;;;;;;0.10;0.10;;;;;;;;;;5056966;28;20632;-58
2021/03/22 06:23:37;;;;;;;0.77;0.57;;;;;;;;;;5044862;28;20228;-58
2021/03/22 06:26:26;;;;;;;0.20;0.20;;;;;;;;;;5051525;28;20186;-57
2021/03/22 06:28:57;;;;;;;0.10;0.10;;;;;;;;;;5045526;28;20217;-57
2021/03/22 06:31:24;;;;;;;0.43;0.40;;;;;;;;;;5047791;28;20189;-57
2021/03/22 06:33:55;;;;;;;0.30;0.30;;;;;;;;;;5052799;28;20193;-57
2021/03/22 06:36:24;;;;;;;0.40;0.40;;;;;;;;;;5052888;28;20280;-57
2021/03/22 06:38:55;;;;;;;0.43;0.30;;;;;;;;;;5046586;28;20955;-58
2021/03/22 06:41:34;;;;;;;1.57;1.13;;;;;;;;;;5053810;28;20236;-57
2021/03/22 06:44:02;;;;;;;0.10;0.10;;;;;;;;;;5047637;28;20255;-56
2021/03/22 06:46:28;;;;;;;2.67;2.57;;;;;;;;;;5045078;28;20214;-57
2021/03/22 06:48:58;;;;;;;0.10;0.10;;;;;;;;;;5048630;28;20251;-57
2021/03/22 06:51:25;;;;;;;0.10;0.10;;;;;;;;;;5050104;28;20277;-56
2021/03/22 06:53:58;;;;;;;0.10;0.10;;;;;;;;;;5047355;28;20198;-57
2021/03/22 06:56:29;;;;;;;0.10;0.10;;;;;;;;;;5052280;28;20223;-59
2021/03/22 06:59:08;;;;;;;0.47;0.47;;;;;;;;;;5048989;28;20175;-56
2021/03/22 07:01:35;;;;;;;0.63;0.63;;;;;;;;;;5049239;28;20191;-57
2021/03/22 07:04:20;;;;;;;0.20;0.20;;;;;;;;;;5050224;28;20183;-57
2021/03/22 07:07:05;;;;;;;1.30;0.30;;;;;;;;;;5050074;28;20218;-57
2021/03/22 07:09:32;;;;;;;0.83;0.83;;;;;;;;;;5048758;28;20633;-57
2021/03/22 07:11:59;;;;;;;0.10;0.10;;;;;;;;;;5046860;28;20692;-57
2021/03/22 07:14:27;;;;;;;0.10;0.10;;;;;;;;;;5047491;28;20190;-58
2021/03/22 07:17:16;;;;;;;0.70;0.70;;;;;;;;;;5049274;28;20675;-58
2021/03/22 07:19:43;;;;;;;2.10;1.20;;;;;;;;;;5054182;28;20325;-58
2021/03/22 07:22:21;;;;;;;0.70;0.70;;;;;;;;;;5051867;28;20252;-58
2021/03/22 07:24:53;;;;;;;0.30;0.20;;;;;;;;;;5051579;28;20880;-58
2021/03/22 07:27:38;;;;;;;0.10;0.10;;;;;;;;;;5056461;28;20187;-58
2021/03/22 07:30:26;;;;;;;0.10;0.10;;;;;;;;;;5048118;28;20186;-59
2021/03/22 07:32:53;;;;;;;0.10;0.10;;;;;;;;;;5052300;28;20187;-57
2021/03/22 07:35:22;;;;;;;0.10;0.10;;;;;;;;;;5055600;28;20795;-57
2021/03/22 07:38:07;;;;;;;4.80;0.77;;;;;;;;;;5049685;28;20891;-58
2021/03/22 07:40:49;;;;;;;0.30;0.30;;;;;;;;;;5049177;28;20202;-57
2021/03/22 07:43:22;;;;;;;0.20;0.20;;;;;;;;;;5052867;28;20190;-57
2021/03/22 07:46:20;;;;;;;0.10;0.10;;;;;;;;;;5046069;28;21126;-58
2021/03/22 07:49:07;;;;;;;0.10;0.10;;;;;;;;;;5022844;28;21067;-57
2021/03/22 07:51:33;;;;;;;0.10;0.10;;;;;;;;;;5047885;28;20612;-58
2021/03/22 07:54:18;;;;;;;0.00;0.00;;;;;;;;;;5045193;28;20598;-57
2021/03/22 07:57:06;;;;;;;0.40;0.40;;;;;;;;;;5044196;28;20214;-57
2021/03/22 07:59:51;;;;;;;0.10;0.10;;;;;;;;;;5050098;28;20189;-58
2021/03/22 08:02:36;;;;;;;0.10;0.10;;;;;;;;;;5050019;28;20244;-57
2021/03/22 08:05:02;;;;;;;0.37;0.37;;;;;;;;;;5051856;28;20186;-57
2021/03/22 08:07:38;;;;;;;0.00;0.00;;;;;;;;;;5045301;28;20914;-58
2021/03/22 08:10:17;;;;;;;0.00;0.00;;;;;;;;;;5054683;28;20214;-57
2021/03/22 08:12:46;;;;;;;0.83;0.83;;;;;;;;;;5048068;28;20294;-57
2021/03/22 08:15:16;;;;;;;0.10;0.10;;;;;;;;;;5054132;28;20226;-58
2021/03/22 08:17:45;;;;;;;0.10;0.10;;;;;;;;;;5053679;28;20194;-57
2021/03/22 08:20:12;;;;;;;0.33;0.33;;;;;;;;;;5039802;28;20248;-57
2021/03/22 08:22:43;;;;;;;0.10;0.10;;;;;;;;;;5048689;28;20199;-57
2021/03/22 08:25:22;;;;;;;0.10;0.10;;;;;;;;;;5040978;28;20187;-58
2021/03/22 08:28:06;;;;;;;0.10;0.10;;;;;;;;;;5046078;28;20233;-58
2021/03/22 08:30:40;;;;;;;1.50;0.57;;;;;;;;;;5043822;28;20725;-57
2021/03/22 08:33:27;;;;;;;0.10;0.10;;;;;;;;;;5046638;28;20179;-58
2021/03/22 08:36:06;;;;;;;0.50;0.50;;;;;;;;;;5056535;28;20198;-57
2021/03/22 08:38:42;;;;;;;0.40;0.40;;;;;;;;;;5056441;28;20215;-57
2021/03/22 08:41:21;;;;;;;1.27;0.43;;;;;;;;;;5063334;28;20292;-57
2021/03/22 08:43:51;;;;;;;0.10;0.10;;;;;;;;;;5044961;28;20868;-57
2021/03/22 08:46:34;;;;;;;3.13;1.20;;;;;;;;;;5047530;28;20185;-57
2021/03/22 08:49:01;;;;;;;0.33;0.33;;;;;;;;;;5047166;28;20251;-58
2021/03/22 08:51:30;;;;;;;0.10;0.10;;;;;;;;;;5051203;28;20182;-57
2021/03/22 08:54:01;;;;;;;0.10;0.10;;;;;;;;;;5049725;28;20220;-57
2021/03/22 08:56:32;;;;;;;0.10;0.10;;;;;;;;;;5045002;28;20240;-57
2021/03/22 08:59:02;;;;;;;0.20;0.20;;;;;;;;;;5042991;28;20197;-58
2021/03/22 09:01:29;;;;;;;0.30;0.30;;;;;;;;;;5045036;28;20288;-58
2021/03/22 09:04:09;;;;;;;0.23;0.23;;;;;;;;;;5046444;28;20205;-58
2021/03/22 09:06:36;;;;;;;0.23;0.23;;;;;;;;;;5052296;28;21199;-58
2021/03/22 09:09:05;;;;;;;0.10;0.10;;;;;;;;;;5052197;28;20217;-57
2021/03/22 09:11:40;;;;;;;0.10;0.10;;;;;;;;;;5052913;28;20302;-58
2021/03/22 09:14:18;;;;;;;0.10;0.10;;;;;;;;;;5052579;28;20262;-57
2021/03/22 09:16:46;;;;;;;0.10;0.10;;;;;;;;;;5044520;28;20237;-58
2021/03/22 09:19:12;;;;;;;0.10;0.10;;;;;;;;;;5049804;28;20186;-57
2021/03/22 09:22:05;;;;;;;0.30;0.23;;;;;;;;;;5043444;28;20616;-58
2021/03/22 09:27:24;;;;;;;0.10;0.10;;;;;;;;;;5042168;28;20193;-57
2021/03/22 09:30:14;;;;;;;0.20;0.20;;;;;;;;;;5049513;28;20190;-58
2021/03/22 09:32:45;;;;;;;2.40;2.30;;;;;;;;;;5049159;28;20226;-58
2021/03/22 09:35:14;;;;;;;0.40;0.40;;;;;;;;;;5053783;28;20216;-58
2021/03/22 09:37:48;;;;;;;0.10;0.10;;;;;;;;;;5049197;28;20268;-57
2021/03/22 09:40:29;;;;;;;0.13;0.13;;;;;;;;;;5048377;28;20216;-57
2021/03/22 09:43:05;;;;;;;0.17;0.17;;;;;;;;;;5054403;28;21169;-57
2021/03/22 09:45:36;;;;;;;0.63;0.30;;;;;;;;;;5050055;28;20524;-58
2021/03/22 09:48:07;;;;;;;0.10;0.10;;;;;;;;;;5048545;28;20296;-57
2021/03/22 09:50:35;;;;;;;0.17;0.17;;;;;;;;;;5054694;28;20191;-58
2021/03/22 09:53:11;;;;;;;0.20;0.20;;;;;;;;;;5045779;28;20348;-58
2021/03/22 09:55:50;;;;;;;0.10;0.10;;;;;;;;;;5051476;28;20222;-57
2021/03/22 09:58:27;;;;;;;0.40;0.40;;;;;;;;;;5043907;28;20316;-57
2021/03/22 10:00:56;;;;;;;0.10;0.10;;;;;;;;;;5051728;28;20188;-57
2021/03/22 13:19:57;;;;;;;0.00;0.00;;;;;;;;;;5046114;28;20646;-59
2021/03/22 13:22:24;;;;;;;0.00;0.00;;;;;;;;;;5035934;28;20557;-59
2021/03/22 13:24:52;;;;;;;0.20;0.20;;;;;;;;;;5035573;28;20191;-59
2021/03/22 13:27:19;;;;;;;2.30;0.20;;;;;;;;;;5042784;28;20185;-59
2021/03/22 13:29:46;;;;;;;1.27;0.07;;;;;;;;;;5037092;28;20877;-60
2021/03/22 13:32:12;;;;;;;2.27;0.67;;;;;;;;;;5035269;28;20649;-59
2021/03/22 13:34:39;;;;;;;0.10;0.10;;;;;;;;;;5035260;28;20179;-59
2021/03/22 13:37:09;;;;;;;0.10;0.00;;;;;;;;;;5035481;28;20200;-60
2021/03/22 13:39:36;;;;;;;25.67;1.23;;;;;;;;;;5034598;28;20325;-60
2021/03/22 13:42:03;;;;;;;0.00;0.00;;;;;;;;;;5035092;28;20278;-60
2021/03/22 13:44:29;;;;;;;0.67;0.33;;;;;;;;;;5041273;28;20221;-60
2021/03/22 13:46:56;;;;;;;0.30;0.10;;;;;;;;;;5035267;28;20267;-60
2021/03/22 13:49:22;;;;;;;0.00;0.00;;;;;;;;;;5035160;28;20277;-61
2021/03/22 13:51:49;;;;;;;0.00;0.00;;;;;;;;;;5034307;28;20176;-60
2021/03/22 13:54:17;;;;;;;1.90;0.10;;;;;;;;;;5035806;28;20191;-60
2021/03/22 13:56:45;;;;;;;3.90;0.30;;;;;;;;;;5035454;28;20278;-61
2021/03/22 13:59:23;;;;;;;0.03;0.03;;;;;;;;;;5035125;28;20203;-60
2021/03/22 14:01:51;;;;;;;0.73;0.20;;;;;;;;;;5034911;28;20187;-60
2021/03/22 14:04:17;;;;;;;0.10;0.10;;;;;;;;;;5034914;28;21087;-60
2021/03/22 14:06:44;;;;;;;0.00;0.00;;;;;;;;;;5035314;28;20184;-60
2021/03/22 14:09:11;;;;;;;0.30;0.27;;;;;;;;;;5034714;28;20186;-60
2021/03/22 14:11:38;;;;;;;0.10;0.10;;;;;;;;;;5035278;28;21098;-60
2021/03/22 14:14:06;;;;;;;0.00;0.00;;;;;;;;;;5034606;28;20183;-60
2021/03/22 14:16:32;;;;;;;1.43;0.50;;;;;;;;;;5035093;28;20198;-59
2021/03/22 14:18:59;;;;;;;0.00;0.00;;;;;;;;;;5037490;28;20224;-60
2021/03/22 14:21:25;;;;;;;0.67;0.23;;;;;;;;;;5035076;28;20697;-60
2021/03/22 14:23:52;;;;;;;1.33;0.40;;;;;;;;;;5035212;28;20192;-60
2021/03/22 14:26:20;;;;;;;0.00;0.00;;;;;;;;;;5034375;28;20184;-60
2021/03/22 14:28:47;;;;;;;1.80;0.63;;;;;;;;;;5034476;28;20815;-61
2021/03/22 14:31:15;;;;;;;0.00;0.00;;;;;;;;;;5020972;28;20664;-60
2021/03/22 14:33:43;;;;;;;1.03;0.50;;;;;;;;;;5021357;28;20255;-60
2021/03/22 14:36:10;;;;;;;0.00;0.00;;;;;;;;;;5021519;28;20273;-60
2021/03/22 14:38:36;;;;;;;1.67;0.90;;;;;;;;;;5021581;28;20205;-60
2021/03/22 14:41:03;;;;;;;0.20;0.20;;;;;;;;;;5020786;28;20185;-60
2021/03/22 14:43:30;;;;;;;0.10;0.10;;;;;;;;;;5021137;28;20208;-60
2021/03/22 14:45:56;;;;;;;0.00;0.00;;;;;;;;;;5021306;28;20187;-60
2021/03/22 14:48:23;;;;;;;0.10;0.10;;;;;;;;;;5021267;28;20221;-60
2021/03/22 14:50:50;;;;;;;4.73;0.40;;;;;;;;;;5021285;28;20192;-61
2021/03/22 14:53:16;;;;;;;3.90;0.73;;;;;;;;;;5027318;28;20191;-60
2021/03/22 14:55:43;;;;;;;0.67;0.37;;;;;;;;;;5022575;28;20277;-60
2021/03/22 14:58:10;;;;;;;0.10;0.10;;;;;;;;;;5020850;28;20211;-61
2021/03/22 15:00:41;;;;;;;7.10;0.53;;;;;;;;;;5022302;28;20202;-59
2021/03/22 15:03:08;;;;;;;0.50;0.20;;;;;;;;;;5020578;28;20312;-62
2021/03/22 15:05:35;;;;;;;0.13;0.13;;;;;;;;;;5020312;28;20181;-61
2021/03/22 15:08:02;;;;;;;0.00;0.00;;;;;;;;;;5020886;28;20184;-60
2021/03/22 15:10:30;;;;;;;1.07;0.70;;;;;;;;;;5020679;28;20215;-59
2021/03/22 15:12:57;;;;;;;0.20;0.20;;;;;;;;;;5020609;28;20176;-60
2021/03/22 15:15:26;;;;;;;0.00;0.00;;;;;;;;;;5020755;28;20231;-61
2021/03/22 15:17:52;;;;;;;2.10;1.07;;;;;;;;;;5024153;28;20235;-59
2021/03/22 15:20:21;;;;;;;0.10;0.10;;;;;;;;;;5020516;28;20230;-60
2021/03/22 15:22:48;;;;;;;3.77;0.53;;;;;;;;;;5020141;28;20192;-60
2021/03/22 15:25:18;;;;;;;11.73;0.93;;;;;;;;;;5025421;28;20192;-60
2021/03/22 15:27:44;;;;;;;0.13;0.10;;;;;;;;;;5019970;28;20325;-60
2021/03/22 15:30:11;;;;;;;1.00;0.20;;;;;;;;;;5019868;28;20936;-60
2021/03/22 15:32:38;;;;;;;0.30;0.20;;;;;;;;;;5019792;28;20192;-62
2021/03/22 15:35:05;;;;;;;0.00;0.00;;;;;;;;;;5022055;28;20188;-62
2021/03/22 15:37:31;;;;;;;0.00;0.00;;;;;;;;;;5019282;28;20184;-63
2021/03/22 15:39:58;;;;;;;1.30;0.50;;;;;;;;;;5019866;28;20184;-62
2021/03/22 15:42:24;;;;;;;0.10;0.10;;;;;;;;;;5021723;28;20177;-62
2021/03/22 15:44:51;;;;;;;0.53;0.23;;;;;;;;;;5019162;28;20172;-62
2021/03/22 15:47:17;;;;;;;3.27;0.53;;;;;;;;;;5020398;28;20195;-61
2021/03/22 15:49:44;;;;;;;0.50;0.10;;;;;;;;;;5019355;28;20188;-62
2021/03/22 15:52:10;;;;;;;0.00;0.00;;;;;;;;;;5019045;28;20184;-61
2021/03/22 15:54:37;;;;;;;0.20;0.20;;;;;;;;;;5019429;28;20788;-61
2021/03/22 15:57:04;;;;;;;0.10;0.10;;;;;;;;;;5020035;28;20231;-61
2021/03/22 15:59:30;;;;;;;4.50;0.83;;;;;;;;;;5019999;28;20212;-62
2021/03/22 16:01:57;;;;;;;0.30;0.27;;;;;;;;;;5019990;28;20282;-62
2021/03/22 16:04:23;;;;;;;8.40;1.37;;;;;;;;;;5019190;28;20242;-61
2021/03/22 16:06:50;;;;;;;1.53;1.17;;;;;;;;;;5019564;28;20208;-61
2021/03/22 16:09:16;;;;;;;0.60;0.27;;;;;;;;;;5019839;28;20214;-61
2021/03/22 16:11:43;;;;;;;0.00;0.00;;;;;;;;;;5019318;28;20236;-61
2021/03/22 16:14:09;;;;;;;0.60;0.10;;;;;;;;;;5019711;28;20189;-61
2021/03/22 16:16:36;;;;;;;0.30;0.23;;;;;;;;;;5019270;28;20724;-62
2021/03/22 16:19:02;;;;;;;0.00;0.00;;;;;;;;;;5019430;28;20259;-61
2021/03/22 16:21:29;;;;;;;5.50;0.97;;;;;;;;;;5019714;28;20179;-61
2021/03/22 16:23:56;;;;;;;0.20;0.20;;;;;;;;;;5019890;28;20201;-61
2021/03/22 16:26:22;;;;;;;1.13;0.67;;;;;;;;;;5018750;28;20278;-61
2021/03/22 16:28:49;;;;;;;2.00;0.67;;;;;;;;;;5021615;28;20185;-61
2021/03/22 16:31:15;;;;;;;0.00;0.00;;;;;;;;;;5022632;28;20273;-61
2021/03/22 16:33:42;;;;;;;0.10;0.10;;;;;;;;;;5018934;28;20664;-61
2021/03/22 16:36:10;;;;;;;0.13;0.10;;;;;;;;;;5019483;28;20189;-61
2021/03/22 16:38:37;;;;;;;1.77;0.60;;;;;;;;;;5019035;28;20205;-61
2021/03/22 16:41:06;;;;;;;0.57;0.00;;;;;;;;;;5019146;28;20929;-61
2021/03/22 16:43:36;;;;;;;0.53;0.53;;;;;;;;;;5019098;28;20966;-61
2021/03/22 16:46:04;;;;;;;0.23;0.23;;;;;;;;;;5018773;28;20195;-61
2021/03/22 16:48:32;;;;;;;0.00;0.00;;;;;;;;;;5018817;28;20196;-61
2021/03/22 16:50:59;;;;;;;2.90;0.47;;;;;;;;;;5018766;28;20192;-61
2021/03/22 16:53:26;;;;;;;2.60;0.43;;;;;;;;;;5023514;28;21051;-62
2021/03/22 16:55:58;;;;;;;0.00;0.00;;;;;;;;;;5021573;28;20231;-62
2021/03/22 16:58:25;;;;;;;0.00;0.00;;;;;;;;;;5024205;28;20218;-61
2021/03/22 17:00:51;;;;;;;0.00;0.00;;;;;;;;;;5018977;28;20184;-62
2021/03/22 17:03:18;;;;;;;0.00;0.00;;;;;;;;;;5018855;28;20188;-61
2021/03/22 17:05:46;;;;;;;0.00;0.00;;;;;;;;;;5018572;28;20201;-62
2021/03/22 17:08:13;;;;;;;0.77;0.20;;;;;;;;;;5018786;28;20841;-61
2021/03/22 17:10:42;;;;;;;0.20;0.20;;;;;;;;;;5018542;28;20187;-61
2021/03/22 17:13:09;;;;;;;0.07;0.07;;;;;;;;;;5018270;28;20236;-62
2021/03/22 17:15:36;;;;;;;0.40;0.10;;;;;;;;;;5018883;28;20281;-61
2021/03/22 17:18:02;;;;;;;1.70;0.40;;;;;;;;;;5018694;28;20240;-61
2021/03/22 17:20:30;;;;;;;0.03;0.03;;;;;;;;;;5018914;28;20203;-61
2021/03/22 17:22:57;;;;;;;0.97;0.17;;;;;;;;;;5018750;28;20179;-62
2021/03/22 17:25:28;;;;;;;0.03;0.03;;;;;;;;;;5021498;28;20176;-61
2021/03/22 17:27:55;;;;;;;2.47;0.57;;;;;;;;;;5021194;28;20257;-61
2021/03/22 17:30:23;;;;;;;0.53;0.50;;;;;;;;;;5018477;28;20184;-62
2021/03/22 17:32:50;;;;;;;2.37;0.77;;;;;;;;;;5018978;28;20183;-62
2021/03/22 17:35:17;;;;;;;2.10;0.10;;;;;;;;;;5027390;28;20738;-62
2021/03/22 17:37:46;;;;;;;0.93;0.93;;;;;;;;;;5019172;28;20298;-62
2021/03/22 17:40:13;;;;;;;2.90;0.30;;;;;;;;;;5018430;28;20296;-61
2021/03/22 17:42:39;;;;;;;0.00;0.00;;;;;;;;;;5018764;28;20187;-62
2021/03/22 17:45:07;;;;;;;0.77;0.20;;;;;;;;;;5018300;28;20239;-61
2021/03/22 17:47:33;;;;;;;0.00;0.00;;;;;;;;;;5018242;28;21015;-62
2021/03/22 17:50:00;;;;;;;0.83;0.40;;;;;;;;;;5018163;28;20189;-62
2021/03/22 17:52:27;;;;;;;0.00;0.00;;;;;;;;;;5018478;28;20184;-62
2021/03/22 17:54:56;;;;;;;0.73;0.30;;;;;;;;;;5018517;28;20180;-61
2021/03/22 17:57:22;;;;;;;0.00;0.00;;;;;;;;;;5017571;28;20177;-61
2021/03/22 17:59:49;;;;;;;0.20;0.20;;;;;;;;;;5018528;28;20203;-61
2021/03/22 18:02:24;;;;;;;0.83;0.20;;;;;;;;;;5017621;28;20191;-60
2021/03/22 18:04:50;;;;;;;0.70;0.70;;;;;;;;;;5018131;28;20190;-61
2021/03/22 18:07:18;;;;;;;3.23;0.40;;;;;;;;;;5020792;28;20199;-61
2021/03/22 18:09:44;;;;;;;0.30;0.30;;;;;;;;;;5020421;28;20204;-62
2021/03/22 18:12:11;;;;;;;0.07;0.07;;;;;;;;;;5020606;28;20838;-61
2021/03/22 18:14:38;;;;;;;22.77;1.80;;;;;;;;;;5020729;28;20269;-61
2021/03/22 18:17:06;;;;;;;0.97;0.83;;;;;;;;;;5021837;28;20266;-61
2021/03/22 18:19:33;;;;;;;2.10;0.20;;;;;;;;;;5021166;28;20230;-61